Flight Track Log - Related Links

Times and Time Zones

All times are in EDT time to prevent confusion due to time zone crossing. See the AAL1413 flight status page for this flight to view local times or setup timezone preferences in your user account.

Time Position Orientation Groundspeed Altitude Reporting Facility
EDT Latitude Longitude Course Direction KTS MPH feet Rate Location/Type
Tue 10:50:15 AM 32.8702 -97.0333 207° Southwest  Level FlightAware Approximate
Tue 10:51:15 AM 32.7615 -97.0346 348° North  Level FlightAware Approximate
Tue 10:52:00 AM 32.8372 -97.0533 180° South 203 234 2,700  Level FAA TRACON SMA TRACON (SMA)
Tue 10:52:40 AM 32.7975 -97.0533 201° Southwest 237 273 4,000 2,100 Climbing FAA TRACON SMA TRACON (SMA)
Tue 10:53:20 AM 32.7536 -97.0731 267° West 266 306 5,500 2,400 Climbing FAA TRACON SMA TRACON (SMA)
Tue 10:54:00 AM 32.7508 -97.1314 282° West 267 307 7,200 2,550 Climbing FAA TRACON SMA TRACON (SMA)
Tue 10:54:40 AM 32.7606 -97.1869 283° West 278 320 8,900 1,823 Climbing FAA TRACON SMA TRACON (SMA)
Tue 10:55:19 AM 32.7728 -97.2489 283° West 275 316 9,600 1,275 Climbing FAA TRACON SMA TRACON (SMA)
Tue 10:56:00 AM 32.7839 -97.3050 283° West 284 327 10,600 1,481 Climbing FAA TRACON SMA TRACON (SMA)
Tue 10:56:40 AM 32.7972 -97.3758 283° West 319 367 11,600 2,025 Climbing FAA TRACON SMA TRACON (SMA)
Tue 10:57:20 AM 32.8122 -97.4522 283° West 343 395 13,300 2,278 Climbing FAA TRACON SMA TRACON (SMA)
Tue 10:57:59 AM 32.8258 -97.5222 282° West 354 407 14,600 2,100 Climbing FAA TRACON SMA TRACON (SMA)
Tue 10:58:40 AM 32.8411 -97.6044 283° West 366 421 16,100 2,325 Climbing FAA TRACON SMA TRACON (SMA)
Tue 10:59:19 AM 32.8572 -97.6881 278° West 376 433 17,700 2,051 Climbing FAA TRACON SMA TRACON (SMA)
Tue 10:59:59 AM 32.8664 -97.7658 270° West 387 445 18,800 1,800 Climbing FAA TRACON SMA TRACON (SMA)
Tue 11:00:39 AM 32.8667 -97.8572 270° West 401 461 20,100 2,074 Climbing FAA TRACON SMA TRACON (SMA)
Tue 11:01:20 AM 32.8661 -97.9494 270° West 403 464 21,600 1,852 Climbing FAA TRACON SMA TRACON (SMA)
Tue 11:02:00 AM 32.8664 -98.0322 269° West 406 467 22,600 1,425 Climbing FAA TRACON SMA TRACON (SMA)
Tue 11:02:40 AM 32.8653 -98.1272 270° West 417 480 23,500 1,425 Climbing FAA TRACON SMA TRACON (SMA)
Tue 11:03:20 AM 32.8647 -98.2242 267° West 425 489 24,500 1,340 Climbing FAA TRACON SMA TRACON (SMA)
Tue 11:04:23 AM 32.8589 -98.3581 280° West 431 496 25,800 1,171 Climbing Fort Worth Center
Tue 11:05:23 AM 32.8786 -98.4969 286° West 431 496 26,900 1,150 Climbing Fort Worth Center
Tue 11:06:23 AM 32.9128 -98.6408 287° West 431 496 28,100 1,550 Climbing Fort Worth Center
Tue 11:07:23 AM 32.9489 -98.7825 286° West 438 504 30,000 1,600 Climbing Fort Worth Center
Tue 11:08:23 AM 32.9808 -98.9192 286° West 438 504 31,300 1,000 Climbing Fort Worth Center
Tue 11:09:23 AM 33.0125 -99.0533 286° West 438 504 32,000 350 Climbing Fort Worth Center
Tue 11:10:23 AM 33.0442 -99.1878 285° West 433 498 32,000  Level Fort Worth Center
Tue 11:11:23 AM 33.0756 -99.3247 286° West 433 498 32,000  Level Fort Worth Center
Tue 11:12:23 AM 33.1089 -99.4619 285° West 433 498 32,000  Level Fort Worth Center
Tue 11:13:23 AM 33.1400 -99.5992 285° West 433 498 32,000  Level Fort Worth Center
Tue 11:14:23 AM 33.1708 -99.7364 285° West 433 498 32,000  Level Fort Worth Center
Tue 11:15:23 AM 33.2017 -99.8736 286° West 433 498 32,000  Level Fort Worth Center
Tue 11:16:23 AM 33.2344 -100.0111 285° West 433 498 32,000  Level Fort Worth Center
Tue 11:17:23 AM 33.2667 -100.1514 284° West 433 498 32,000  Level Fort Worth Center
Tue 11:18:23 AM 33.2950 -100.2889 284° West 433 498 32,000  Level Fort Worth Center
Tue 11:19:23 AM 33.3250 -100.4292 286° West 433 498 32,000  Level Fort Worth Center
Tue 11:20:23 AM 33.3572 -100.5669 286° West 433 498 32,000  Level Fort Worth Center
Tue 11:21:23 AM 33.3892 -100.7047 284° West 433 498 32,000  Level Fort Worth Center
Tue 11:22:23 AM 33.4189 -100.8428 285° West 433 498 32,000  Level Fort Worth Center
Tue 11:23:23 AM 33.4483 -100.9783 285° West 433 498 32,000  Level Fort Worth Center
Tue 11:24:23 AM 33.4817 -101.1317 283° West 433 498 32,000  Level Fort Worth Center
Tue 11:25:23 AM 33.5086 -101.2722 284° West 438 504 32,000  Level Fort Worth Center
Tue 11:26:23 AM 33.5378 -101.4106 285° West 433 498 32,000  Level Fort Worth Center
Tue 11:27:23 AM 33.5686 -101.5517 286° West 433 498 32,000  Level Fort Worth Center
Tue 11:28:23 AM 33.5978 -101.6778 284° West 438 504 32,000  Level Fort Worth Center
Tue 11:29:23 AM 33.6300 -101.8314 284° West 438 504 32,000  Level Fort Worth Center
Tue 11:30:23 AM 33.6583 -101.9725 283° West 433 498 32,000  Level Fort Worth Center
Tue 11:31:23 AM 33.6864 -102.1139 285° West 443 510 32,000  Level Fort Worth Center
Tue 11:32:23 AM 33.7131 -102.2375 284° West 432 497 32,000  Level Fort Worth Center
Tue 11:34:29 AM 33.7742 -102.5322 285° West 431 496 32,000  Level Albuquerque Center
Tue 11:35:29 AM 33.8044 -102.6656 284° West 430 495 32,000  Level Albuquerque Center
Tue 11:36:29 AM 33.8328 -102.8064 283° West 430 495 32,000  Level Albuquerque Center
Tue 11:37:29 AM 33.8589 -102.9475 284° West 428 493 32,000  Level Albuquerque Center
Tue 11:38:29 AM 33.8892 -103.0908 282° West 433 498 32,000  Level Albuquerque Center
Tue 11:39:29 AM 33.9131 -103.2322 286° West 433 498 32,000  Level Albuquerque Center
Tue 11:40:29 AM 33.9447 -103.3658 280° West 428 493 32,000  Level Albuquerque Center
Tue 11:41:29 AM 33.9686 -103.5250 284° West 428 493 32,000  Level Albuquerque Center
Tue 11:42:29 AM 33.9958 -103.6617 283° West 431 496 32,000  Level Albuquerque Center
Tue 11:43:29 AM 34.0231 -103.8033 283° West 431 496 32,000  Level Albuquerque Center
Tue 11:44:29 AM 34.0503 -103.9475 283° West 437 503 32,000  Level Albuquerque Center
Tue 11:45:29 AM 34.0769 -104.0867 283° West 432 497 32,000  Level Albuquerque Center
Tue 11:46:29 AM 34.1014 -104.2111 282° West 432 497 32,000  Level Albuquerque Center
Tue 11:47:29 AM 34.1258 -104.3508 284° West 427 491 32,000  Level Albuquerque Center
Tue 11:48:29 AM 34.1542 -104.4903 282° West 432 497 32,000  Level Albuquerque Center
Tue 11:49:29 AM 34.1783 -104.6300 282° West 433 498 32,000  Level Albuquerque Center
Tue 11:50:29 AM 34.2022 -104.7647 283° West 426 490 32,000  Level Albuquerque Center
Tue 11:51:29 AM 34.2306 -104.9194 283° West 426 490 32,000  Level Albuquerque Center
Tue 11:52:29 AM 34.2561 -105.0569 281° West 426 490 32,000  Level Albuquerque Center
Tue 11:53:29 AM 34.2797 -105.1997 283° West 431 496 32,000  Level Albuquerque Center
Tue 11:54:29 AM 34.3050 -105.3347 282° West 431 496 32,000  Level Albuquerque Center
Tue 11:55:29 AM 34.3303 -105.4750 283° West 431 496 32,000  Level Albuquerque Center
Tue 11:56:29 AM 34.3553 -105.6103 281° West 433 498 32,000  Level Albuquerque Center
Tue 11:57:29 AM 34.3781 -105.7531 285° West 428 493 32,000  Level Albuquerque Center
Tue 11:58:29 AM 34.4092 -105.8961 282° West 427 491 32,000  Level Albuquerque Center
Tue 11:59:29 AM 34.4314 -106.0217 280° West 433 498 32,000  Level Albuquerque Center
Tue 12:00:29 PM 34.4517 -106.1572 285° West 426 490 32,000  Level Albuquerque Center
Tue 12:01:29 PM 34.4844 -106.3081 281° West 426 490 32,000  Level Albuquerque Center
Tue 12:02:29 PM 34.5019 -106.4186 283° West 426 490 32,000  Level Albuquerque Center
Tue 12:03:29 PM 34.5322 -106.5744 280° West 436 502 32,000  Level Albuquerque Center
Tue 12:04:29 PM 34.5519 -106.7106 284° West 420 483 32,000  Level Albuquerque Center
Tue 12:05:29 PM 34.5839 -106.8642 284° West 420 483 32,000  Level Albuquerque Center
Tue 12:06:29 PM 34.6094 -106.9878 282° West 420 483 32,000 150 Level Albuquerque Center
Tue 12:07:29 PM 34.6347 -107.1339 280° West 413 475 32,300 700 Climbing Albuquerque Center
Tue 12:08:29 PM 34.6558 -107.2753 284° West 413 475 33,400 850 Climbing Albuquerque Center
Tue 12:09:29 PM 34.6808 -107.4017 281° West 399 459 34,000 300 Climbing Albuquerque Center
Tue 12:10:29 PM 34.6997 -107.5203 281° West 399 459 34,000  Level Albuquerque Center
Tue 12:11:29 PM 34.7244 -107.6694 282° West 399 459 34,000  Level Albuquerque Center
Tue 12:12:29 PM 34.7469 -107.8036 279° West 404 465 34,000  Level Albuquerque Center
Tue 12:13:29 PM 34.7631 -107.9225 283° West 404 465 34,000  Level Albuquerque Center
Tue 12:14:29 PM 34.7875 -108.0542 279° West 404 465 34,000  Level Albuquerque Center
Tue 12:15:29 PM 34.8053 -108.1858 282° West 409 471 34,000  Level Albuquerque Center
Tue 12:16:29 PM 34.8272 -108.3175 276° West 409 471 34,000  Level Albuquerque Center
Tue 12:17:29 PM 34.8389 -108.4494 286° West 409 471 34,000  Level Albuquerque Center
Tue 12:18:29 PM 34.8708 -108.5814 283° West 409 471 34,000  Level Albuquerque Center
Tue 12:19:29 PM 34.8967 -108.7133 280° West 409 471 34,000  Level Albuquerque Center
Tue 12:20:29 PM 34.9178 -108.8531 281° West 403 464 34,000  Level Albuquerque Center
Tue 12:21:29 PM 34.9392 -108.9878 281° West 403 464 34,000  Level Albuquerque Center
Tue 12:22:29 PM 34.9583 -109.1047 281° West 398 458 34,000  Level Albuquerque Center
Tue 12:23:29 PM 34.9811 -109.2497 282° West 398 458 34,000  Level Albuquerque Center
Tue 12:24:29 PM 35.0039 -109.3822 281° West 398 458 34,000  Level Albuquerque Center
Tue 12:25:29 PM 35.0247 -109.5144 282° West 398 458 34,000  Level Albuquerque Center
Tue 12:26:29 PM 35.0456 -109.6319 281° West 391 450 34,000  Level Albuquerque Center
Tue 12:27:29 PM 35.0678 -109.7669 282° West 397 457 34,000  Level Albuquerque Center
Tue 12:28:29 PM 35.0919 -109.9097 280° West 397 457 34,000  Level Albuquerque Center
Tue 12:29:29 PM 35.1119 -110.0425 282° West 392 451 34,000  Level Albuquerque Center
Tue 12:30:29 PM 35.1322 -110.1600 281° West 392 451 34,000  Level Albuquerque Center
Tue 12:31:29 PM 35.1522 -110.2903 281° West 392 451 34,000  Level Albuquerque Center
Tue 12:32:29 PM 35.1736 -110.4308 281° West 392 451 34,000  Level Albuquerque Center
Tue 12:33:29 PM 35.1933 -110.5611 282° West 392 451 34,000  Level Albuquerque Center
Tue 12:34:29 PM 35.2150 -110.6814 279° West 397 457 34,000  Level Albuquerque Center
Tue 12:35:29 PM 35.2322 -110.8094 280° West 397 457 34,000  Level Albuquerque Center
Tue 12:36:29 PM 35.2531 -110.9503 281° West 391 450 34,000  Level Albuquerque Center
Tue 12:37:29 PM 35.2742 -111.0808 281° West 391 450 34,000 -250 Level Albuquerque Center
Tue 12:38:29 PM 35.2933 -111.2014 280° West 391 450 33,500 -800 Descending Albuquerque Center
Tue 12:39:29 PM 35.3122 -111.3269 281° West 391 450 32,400 -1,150 Descending Albuquerque Center
Tue 12:40:29 PM 35.3328 -111.4578 280° West 390 449 31,200 -702 Descending Albuquerque Center
Tue 12:42:54 PM 35.3794 -111.7803 280° West 408 470 30,000 -351 Descending Los Angeles Center
Tue 12:43:54 PM 35.3986 -111.9117 280° West 408 470 30,000  Level Los Angeles Center
Tue 12:44:54 PM 35.4181 -112.0483 280° West 408 470 30,000  Level Los Angeles Center
Tue 12:45:54 PM 35.4369 -112.1853 281° West 408 470 30,000 -650 Level Los Angeles Center
Tue 12:46:54 PM 35.4581 -112.3192 280° West 408 470 28,700 -1,100 Descending Los Angeles Center
Tue 12:47:54 PM 35.4767 -112.4536 280° West 408 470 27,800 -350 Descending Los Angeles Center
Tue 12:48:54 PM 35.4978 -112.6031 281° West 408 470 28,000 100 Climbing Los Angeles Center
Tue 12:49:54 PM 35.5181 -112.7325 279° West 402 463 28,000  Level Los Angeles Center
Tue 12:50:54 PM 35.5364 -112.8694 279° West 407 468 28,000  Level Los Angeles Center
Tue 12:51:54 PM 35.5522 -112.9964 280° West 412 474 28,000 -100 Level Los Angeles Center
Tue 12:52:54 PM 35.5725 -113.1389 278° West 417 480 27,800 -1,000 Descending Los Angeles Center
Tue 12:53:54 PM 35.5908 -113.2964 279° West 422 486 26,000 -1,800 Descending Los Angeles Center
Tue 12:54:54 PM 35.6086 -113.4339 279° West 422 486 24,200 -1,750 Descending Los Angeles Center
Tue 12:55:54 PM 35.6261 -113.5661 281° West 410 472 22,500 -1,800 Descending Los Angeles Center
Tue 12:56:54 PM 35.6453 -113.6856 279° West 405 466 20,600 -1,800 Descending Los Angeles Center
Tue 12:57:54 PM 35.6625 -113.8156 280° West 400 460 18,900 -1,750 Descending Los Angeles Center
Tue 12:58:54 PM 35.6814 -113.9453 281° West 390 449 17,100 -1,700 Descending Los Angeles Center
Tue 12:59:54 PM 35.7003 -114.0700 277° West 385 443 15,500 -1,811 Descending Los Angeles Center
Tue 01:00:40 PM 35.7103 -114.1697 282° West 372 428 13,900 -1,750 Descending Los Angeles Center
Tue 01:01:54 PM 35.7331 -114.3022 292° West 361 415 12,000 -985 Descending Los Angeles Center
Tue 01:02:54 PM 35.7636 -114.3936 340° North 300 345 11,700 -887 Descending Los Angeles Center
Tue 01:03:49 PM 35.8456 -114.4303 338° Northwest 305 351 10,300 -850 Descending Los Angeles Center
Tue 01:04:54 PM 35.9211 -114.4672 338° Northwest 277 319 10,000 -148 Descending Los Angeles Center
Tue 01:05:51 PM 36.0011 -114.5067 310° West 274 315 10,000 -387 Level Los Angeles Center
Tue 01:06:58 PM 36.0436 -114.5700 285° West 242 278 9,200 -829 Descending Los Angeles Center
Tue 01:07:54 PM 36.0569 -114.6314 283° West 220 253 8,300 -585 Descending Los Angeles Center
Tue 01:09:01 PM 36.0747 -114.7286 271° West 232 267 8,000 -472 Descending Los Angeles Center
Tue 01:10:01 PM 36.0756 -114.8108 268° West 234 269 7,300 -796 Descending Los Angeles Center
Tue 01:10:54 PM 36.0742 -114.8647 268° West 231 266 6,500 -906 Descending Los Angeles Center

Login

Don't have an account? Register now (free) for customized features, flight alerts, and more!